Terminal Aerodrome Forecast
Issued by NWS

Home | Current Version | Previous Version | Text Only | Print | Product List | Glossary On
Versions: 1 2 3 4 5 6 7 8 9 10 11 12 13 14 15 16
000
FTUS46 KSTO 261739
TAFMHR
TAF
KMHR 261739Z 2618/2718 16011KT P6SM VCSH OVC015
      TEMPO 2618/2620 2SM BR OVC009
     FM262300 17010KT P6SM OVC025
     FM270300 21004KT P6SM BKN030=

USA.gov is the U.S. government's official web portal to all federal, state and local government web resources and services.